Time;durP1;ratioP1;P1;durP2;ratioP2;P2;SDS_P1;SDS_P2;PMS_P1;PMS_P2;Temp;Humidity;BMP_temperature;BMP_pressure;BME280_temperature;BME280_humidity;BME280_pressure;Samples;Min_cycle;Max_cycle;Signal;HPM_P1;HPM_P2
2022/04/08 00:00:14;;;;;;;4.47;1.17;;;;;;;4.86;100.00;91705.13;2077760;28;20093;-86
2022/04/08 00:01:15;;;;;;;7.10;1.70;;;;;;;4.86;100.00;91701.75;2090619;28;20099;-85
2022/04/08 00:02:16;;;;;;;8.13;1.60;;;;;;;4.87;100.00;91706.59;2090529;28;20025;-84
2022/04/08 00:03:17;;;;;;;6.90;1.15;;;;;;;4.90;100.00;91719.03;2079226;28;20084;-84
2022/04/08 00:04:19;;;;;;;6.20;1.40;;;;;;;4.98;100.00;91706.38;2077325;28;20530;-83
2022/04/08 00:05:20;;;;;;;2.83;1.15;;;;;;;4.77;100.00;91708.34;2090420;28;20480;-84
2022/04/08 00:06:23;;;;;;;3.42;1.10;;;;;;;4.92;100.00;91708.78;2090361;28;20067;-85
2022/04/08 00:07:23;;;;;;;5.20;1.30;;;;;;;4.92;100.00;91721.28;2082246;28;20104;-85
2022/04/08 00:08:24;;;;;;;7.97;1.58;;;;;;;4.90;100.00;91718.28;2078649;28;20033;-85
2022/04/08 00:09:26;;;;;;;12.63;2.28;;;;;;;4.88;100.00;91718.72;2082083;28;20021;-83
2022/04/08 00:10:27;;;;;;;8.25;1.73;;;;;;;4.82;100.00;91733.59;2090392;28;20021;-87
2022/04/08 00:11:28;;;;;;;4.38;1.33;;;;;;;4.76;100.00;91709.50;2090119;28;20063;-87
2022/04/08 00:12:29;;;;;;;15.57;1.50;;;;;;;4.70;100.00;91731.59;2081605;28;20826;-85
2022/04/08 00:13:30;;;;;;;6.40;1.15;;;;;;;4.62;100.00;91722.34;2090213;28;20111;-86
2022/04/08 00:14:32;;;;;;;9.23;1.20;;;;;;;4.58;100.00;91719.03;2082137;28;20021;-85
2022/04/08 00:15:38;;;;;;;8.25;1.30;;;;;;;4.53;100.00;91709.66;2090549;28;20021;-83
2022/04/08 00:16:39;;;;;;;6.15;1.05;;;;;;;4.58;100.00;91713.72;2091451;28;20416;-84
2022/04/08 00:17:40;;;;;;;8.02;1.30;;;;;;;4.68;100.00;91718.78;2094327;28;20048;-85
2022/04/08 00:18:42;;;;;;;4.03;1.15;;;;;;;4.62;100.00;91730.28;2090412;28;20025;-84
2022/04/08 00:19:43;;;;;;;5.13;1.13;;;;;;;4.67;100.00;91721.84;2090377;28;20028;-86
2022/04/08 00:20:44;;;;;;;3.47;1.60;;;;;;;4.52;100.00;91739.91;2082082;28;20035;-83
2022/04/08 00:21:48;;;;;;;6.78;1.10;;;;;;;4.44;100.00;91720.06;2090124;28;20021;-84
2022/04/08 00:22:49;;;;;;;5.07;1.33;;;;;;;4.41;100.00;91740.16;2090593;28;20508;-85
2022/04/08 00:23:49;;;;;;;5.22;1.02;;;;;;;4.59;100.00;91752.25;2081864;28;20032;-84
2022/04/08 00:24:50;;;;;;;4.97;1.40;;;;;;;4.45;100.00;91748.75;2081690;28;20064;-85
2022/04/08 00:25:51;;;;;;;5.32;1.38;;;;;;;4.60;100.00;91743.91;2089807;28;20385;-85
2022/04/08 00:26:52;;;;;;;9.35;1.45;;;;;;;4.55;100.00;91734.53;2090538;28;20404;-82
2022/04/08 00:27:53;;;;;;;6.50;1.10;;;;;;;4.66;100.00;91746.81;2098164;28;20032;-83
2022/04/08 00:28:54;;;;;;;8.48;1.00;;;;;;;4.54;100.00;91733.06;2073889;28;20101;-85
2022/04/08 00:29:55;;;;;;;4.65;1.08;;;;;;;4.49;100.00;91724.88;2085908;28;20036;-85
2022/04/08 00:30:57;;;;;;;6.43;0.98;;;;;;;4.43;100.00;91731.78;2090259;28;20048;-82
2022/04/08 00:31:58;;;;;;;6.90;1.67;;;;;;;4.21;100.00;91736.78;2082105;28;20239;-83
2022/04/08 00:32:59;;;;;;;5.57;1.27;;;;;;;4.26;100.00;91721.19;2082039;28;20053;-84
2022/04/08 00:34:00;;;;;;;5.95;1.40;;;;;;;4.37;100.00;91749.31;2098583;28;20028;-85
2022/04/08 00:35:01;;;;;;;6.60;1.02;;;;;;;4.36;100.00;91739.88;2102783;28;20035;-84
2022/04/08 00:36:11;;;;;;;5.63;1.35;;;;;;;4.46;100.00;91729.06;2097386;28;20476;-82
2022/04/08 00:37:13;;;;;;;4.72;1.08;;;;;;;4.51;100.00;91720.66;2090173;28;20047;-83
2022/04/08 00:38:14;;;;;;;3.72;0.98;;;;;;;4.22;100.00;91730.34;2081730;28;20021;-84
2022/04/08 00:39:15;;;;;;;4.13;1.27;;;;;;;4.26;100.00;91729.13;2076572;28;20029;-85
2022/04/08 00:40:16;;;;;;;5.68;1.45;;;;;;;4.20;100.00;91730.75;2106656;28;20031;-85
2022/04/08 00:41:17;;;;;;;4.63;1.10;;;;;;;4.26;100.00;91745.00;2104657;28;20585;-85
2022/04/08 00:42:18;;;;;;;8.10;1.10;;;;;;;4.29;100.00;91743.41;2090075;28;20033;-83
2022/04/08 00:43:19;;;;;;;4.85;1.42;;;;;;;4.21;100.00;91739.41;2085105;28;20032;-84
2022/04/08 00:44:20;;;;;;;7.85;1.42;;;;;;;4.27;100.00;91757.06;2090094;28;20521;-85
2022/04/08 00:45:21;;;;;;;5.95;1.40;;;;;;;4.23;100.00;91734.47;2090130;28;20044;-85
2022/04/08 00:46:23;;;;;;;8.27;1.52;;;;;;;4.15;100.00;91723.28;2081845;28;20106;-84
2022/04/08 00:47:23;;;;;;;6.53;0.90;;;;;;;4.31;100.00;91743.75;2094022;28;20424;-83
2022/04/08 00:48:24;;;;;;;8.40;1.33;;;;;;;4.28;100.00;91731.34;2087318;28;20039;-83
2022/04/08 00:49:25;;;;;;;5.22;0.88;;;;;;;4.17;100.00;91731.59;2089212;28;20424;-84
2022/04/08 00:50:26;;;;;;;6.50;1.02;;;;;;;4.26;100.00;91739.72;2081603;28;20025;-86
2022/04/08 00:51:27;;;;;;;6.25;1.25;;;;;;;4.40;100.00;91737.91;2098104;28;20120;-86
2022/04/08 00:52:31;;;;;;;8.50;1.58;;;;;;;4.40;100.00;91743.94;2089886;28;20023;-85
2022/04/08 00:53:35;;;;;;;9.57;1.65;;;;;;;4.35;100.00;91738.41;2090837;28;20059;-84
2022/04/08 00:54:37;;;;;;;8.80;1.70;;;;;;;4.29;100.00;91728.28;2098586;28;20024;-83
2022/04/08 00:55:38;;;;;;;4.00;0.90;;;;;;;4.31;100.00;91741.13;2089743;28;20107;-84
2022/04/08 00:56:41;;;;;;;8.48;1.20;;;;;;;4.12;100.00;91731.28;2081496;28;20116;-86
2022/04/08 00:57:42;;;;;;;4.72;1.13;;;;;;;4.19;100.00;91745.13;2088477;28;20029;-84
2022/04/08 00:58:44;;;;;;;5.20;1.38;;;;;;;4.20;100.00;91736.03;2089872;28;20039;-86
2022/04/08 00:59:46;;;;;;;7.85;1.15;;;;;;;4.22;100.00;91723.16;2087662;28;20029;-83
2022/04/08 01:00:47;;;;;;;7.65;1.63;;;;;;;4.16;100.00;91739.91;2089547;28;20025;-86
2022/04/08 01:01:48;;;;;;;8.32;1.50;;;;;;;4.34;100.00;91727.06;2098207;28;20028;-84
2022/04/08 01:02:49;;;;;;;1.77;0.80;;;;;;;4.41;100.00;91740.16;2098240;28;20024;-83
2022/04/08 01:03:52;;;;;;;7.28;1.20;;;;;;;4.21;100.00;91744.72;2106679;28;20468;-84
2022/04/08 01:04:53;;;;;;;7.65;1.45;;;;;;;4.22;100.00;91760.19;2106361;28;20387;-84
2022/04/08 01:05:54;;;;;;;5.22;1.08;;;;;;;4.25;100.00;91750.69;2110477;28;20016;-83
2022/04/08 01:06:56;;;;;;;4.18;1.45;;;;;;;4.24;100.00;91743.91;2098116;28;20111;-83
2022/04/08 01:07:58;;;;;;;5.70;1.33;;;;;;;4.23;100.00;91756.38;2097903;28;20077;-83
2022/04/08 01:09:00;;;;;;;4.25;1.35;;;;;;;3.97;100.00;91758.03;2098552;28;20047;-85
2022/04/08 01:10:01;;;;;;;9.32;2.10;;;;;;;4.06;100.00;91751.44;2089636;28;20032;-84
2022/04/08 01:11:03;;;;;;;7.13;1.00;;;;;;;3.92;100.00;91758.50;2081936;28;20116;-84
2022/04/08 01:12:04;;;;;;;4.45;1.02;;;;;;;4.01;100.00;91761.34;2081105;28;20017;-85
2022/04/08 01:13:05;;;;;;;5.78;1.42;;;;;;;4.19;100.00;91781.41;2073468;28;20049;-83
2022/04/08 01:14:11;;;;;;;3.60;0.80;;;;;;;4.36;100.00;91785.59;2083059;28;20116;-83
2022/04/08 01:15:12;;;;;;;6.97;1.00;;;;;;;4.27;100.00;91753.66;2090391;28;20024;-84
2022/04/08 01:16:13;;;;;;;5.68;1.42;;;;;;;4.21;100.00;91771.91;2089757;28;20025;-82
2022/04/08 01:17:24;;;;;;;6.18;1.02;;;;;;;4.13;100.00;91764.53;2095414;28;20032;-85
2022/04/08 01:18:25;;;;;;;5.50;1.13;;;;;;;4.19;100.00;91766.28;2093823;28;20078;-83
2022/04/08 01:19:26;;;;;;;5.28;1.45;;;;;;;4.27;100.00;91751.03;2097955;28;20431;-82
2022/04/08 01:20:27;;;;;;;6.15;1.42;;;;;;;4.27;100.00;91762.34;2097855;28;20024;-84
2022/04/08 01:21:29;;;;;;;5.55;1.30;;;;;;;4.32;100.00;91763.75;2081322;28;20021;-84
2022/04/08 01:22:31;;;;;;;7.82;1.15;;;;;;;4.18;100.00;91756.88;2086288;28;20039;-83
2022/04/08 01:23:36;;;;;;;8.45;1.58;;;;;;;4.09;100.00;91751.38;2089948;28;20021;-84
2022/04/08 01:24:40;;;;;;;5.93;1.25;;;;;;;4.13;100.00;91748.69;2082131;28;20021;-84
2022/04/08 01:25:41;;;;;;;6.57;1.27;;;;;;;4.35;100.00;91746.34;2082438;28;20021;-83
2022/04/08 01:26:42;;;;;;;4.05;1.10;;;;;;;4.21;100.00;91745.44;2081489;28;20029;-86
2022/04/08 01:27:43;;;;;;;8.95;1.33;;;;;;;4.33;100.00;91748.63;2081504;28;20488;-83
2022/04/08 01:28:45;;;;;;;1.42;0.75;;;;;;;4.40;100.00;91749.25;2089882;28;20481;-83
2022/04/08 01:29:47;;;;;;;3.15;1.02;;;;;;;4.38;100.00;91745.50;2085406;28;20025;-83
2022/04/08 01:30:48;;;;;;;6.97;1.48;;;;;;;4.36;100.00;91747.81;2073455;28;20033;-84
2022/04/08 01:31:49;;;;;;;6.07;1.40;;;;;;;4.31;100.00;91756.25;2084732;28;20052;-85
2022/04/08 01:32:50;;;;;;;5.85;1.05;;;;;;;4.13;100.00;91749.41;2081749;28;20044;-84
2022/04/08 01:33:52;;;;;;;5.57;1.20;;;;;;;4.07;100.00;91764.25;2089436;28;20583;-87
2022/04/08 01:34:53;;;;;;;8.30;2.00;;;;;;;4.20;100.00;91770.41;2089609;28;20037;-86
2022/04/08 01:35:54;;;;;;;7.18;1.13;;;;;;;4.21;100.00;91760.56;2080754;28;20017;-84
2022/04/08 01:36:55;;;;;;;13.10;1.70;;;;;;;4.21;100.00;91779.09;2090002;28;20079;-84
2022/04/08 01:37:59;;;;;;;3.38;1.30;;;;;;;4.32;100.00;91755.84;2106054;28;20032;-87
2022/04/08 01:39:00;;;;;;;8.13;1.40;;;;;;;4.30;100.00;91774.00;2090482;28;20021;-85
2022/04/08 01:40:02;;;;;;;5.00;0.90;;;;;;;4.45;100.00;91755.94;2090439;28;20062;-84
2022/04/08 01:41:03;;;;;;;7.30;1.38;;;;;;;4.40;100.00;91759.09;2081151;28;20032;-86
2022/04/08 01:42:05;;;;;;;5.18;1.10;;;;;;;4.44;100.00;91759.75;2096979;28;20021;-84
2022/04/08 01:43:06;;;;;;;4.57;1.02;;;;;;;4.45;100.00;91764.63;2084646;28;20025;-86
2022/04/08 01:44:07;;;;;;;3.60;1.02;;;;;;;4.31;100.00;91767.56;2072396;28;20049;-85
2022/04/08 01:45:09;;;;;;;7.57;1.15;;;;;;;4.40;100.00;91759.81;2086492;28;20377;-87
2022/04/08 01:46:10;;;;;;;7.20;1.25;;;;;;;4.35;100.00;91757.66;2087531;28;20024;-84
2022/04/08 01:47:11;;;;;;;4.05;1.20;;;;;;;4.49;100.00;91754.72;2081010;28;20772;-85
2022/04/08 01:48:12;;;;;;;7.28;1.20;;;;;;;4.43;100.00;91771.47;2081125;28;20533;-83
2022/04/08 01:49:13;;;;;;;3.95;1.10;;;;;;;4.40;100.00;91759.81;2074884;28;20022;-83
2022/04/08 01:50:18;;;;;;;4.60;1.08;;;;;;;4.46;100.00;91771.41;2076805;28;20697;-83
2022/04/08 01:51:19;;;;;;;6.65;1.10;;;;;;;4.37;100.00;91757.25;2079468;28;20017;-86
2022/04/08 01:52:20;;;;;;;7.07;1.40;;;;;;;4.39;100.00;91753.06;2087106;28;20021;-86
2022/04/08 01:53:21;;;;;;;6.28;0.90;;;;;;;4.27;100.00;91759.69;2086826;28;20468;-84
2022/04/08 01:54:22;;;;;;;2.80;1.13;;;;;;;4.39;100.00;91750.41;2085047;28;20048;-83
2022/04/08 01:55:23;;;;;;;10.25;1.05;;;;;;;4.32;100.00;91752.44;2074789;28;20033;-87
2022/04/08 01:56:24;;;;;;;8.10;1.20;;;;;;;4.33;100.00;91746.00;2076742;28;20017;-86
2022/04/08 01:57:25;;;;;;;5.57;1.25;;;;;;;4.32;100.00;91755.09;2088233;28;20115;-86
2022/04/08 01:58:27;;;;;;;5.32;1.35;;;;;;;4.35;100.00;91755.03;2092688;28;20021;-87
2022/04/08 01:59:28;;;;;;;5.93;1.42;;;;;;;4.39;100.00;91749.63;2076854;28;20087;-85
2022/04/08 02:00:30;;;;;;;5.47;1.20;;;;;;;4.32;100.00;91755.84;2094614;28;20027;-86
2022/04/08 02:01:31;;;;;;;9.07;1.50;;;;;;;4.29;100.00;91749.44;2095591;28;20016;-83
2022/04/08 02:02:32;;;;;;;6.60;1.30;;;;;;;4.23;100.00;91745.06;2081999;28;20040;-83
2022/04/08 02:03:33;;;;;;;6.07;1.48;;;;;;;4.30;100.00;91758.13;2095035;28;20036;-83
2022/04/08 02:04:35;;;;;;;4.75;1.10;;;;;;;4.21;100.00;91760.56;2080765;28;20017;-84
2022/04/08 02:05:36;;;;;;;4.80;1.10;;;;;;;4.31;100.00;91751.69;2080797;28;20017;-84
2022/04/08 02:06:40;;;;;;;9.52;1.60;;;;;;;4.28;100.00;91750.59;2082737;28;20029;-83
2022/04/08 02:07:41;;;;;;;3.47;1.08;;;;;;;4.29;100.00;91751.34;2102053;28;20790;-84
2022/04/08 02:08:43;;;;;;;6.82;1.27;;;;;;;4.29;100.00;91757.38;2085053;28;20037;-84
2022/04/08 02:09:44;;;;;;;5.57;1.35;;;;;;;4.16;100.00;91742.56;2076789;28;20433;-85
2022/04/08 02:12:32;;;;;;;;;;;;;;;4.24;100.00;91754.47;2139618;27;20469;-87
2022/04/08 02:13:33;;;;;;;3.97;1.02;;;;;;;4.35;100.00;91759.56;2119652;28;19912;-85
2022/04/08 02:14:34;;;;;;;3.22;1.02;;;;;;;4.24;100.00;91757.13;2100883;28;20115;-85
2022/04/08 02:15:36;;;;;;;8.00;1.40;;;;;;;4.17;100.00;91751.97;2112770;28;20020;-83
2022/04/08 02:16:37;;;;;;;10.45;1.50;;;;;;;4.16;100.00;91750.47;2117119;27;20015;-83
2022/04/08 02:17:38;;;;;;;6.72;1.20;;;;;;;4.21;100.00;91753.38;2112593;28;20026;-84
2022/04/08 02:18:42;;;;;;;4.10;1.00;;;;;;;4.28;100.00;91753.25;2111086;28;20369;-86
2022/04/08 02:19:43;;;;;;;4.57;1.33;;;;;;;4.21;100.00;91763.22;2100943;28;20689;-83
2022/04/08 02:20:44;;;;;;;6.85;1.13;;;;;;;4.26;100.00;91746.91;2096079;28;20025;-83
2022/04/08 02:21:45;;;;;;;6.22;1.10;;;;;;;4.36;100.00;91758.41;2115868;28;20021;-83
2022/04/08 02:22:46;;;;;;;8.98;1.42;;;;;;;4.17;100.00;91744.03;2110888;28;20024;-85
2022/04/08 02:23:48;;;;;;;5.88;1.67;;;;;;;4.26;100.00;91746.91;2112566;28;20042;-83
2022/04/08 02:24:50;;;;;;;5.63;1.25;;;;;;;4.42;100.00;91746.19;2102470;28;20119;-85
2022/04/08 02:25:51;;;;;;;3.88;1.00;;;;;;;4.39;100.00;91747.00;2120051;27;20392;-83
2022/04/08 02:26:52;;;;;;;4.65;1.33;;;;;;;4.43;100.00;91761.63;2113093;28;20042;-83
2022/04/08 02:27:54;;;;;;;6.55;1.52;;;;;;;4.35;100.00;91757.66;2100609;28;20105;-83
2022/04/08 02:28:55;;;;;;;5.57;1.52;;;;;;;4.31;100.00;91758.91;2121856;27;20023;-83
2022/04/08 02:30:00;;;;;;;9.02;1.50;;;;;;;4.27;100.00;91748.38;2120568;28;20106;-84
2022/04/08 02:31:03;;;;;;;6.53;1.45;;;;;;;4.29;100.00;91754.75;2101304;28;20068;-85
2022/04/08 02:32:06;;;;;;;6.90;1.02;;;;;;;4.40;100.00;91751.88;2106358;28;20032;-84
2022/04/08 02:33:07;;;;;;;6.43;1.13;;;;;;;4.35;100.00;91759.56;2113339;28;20110;-84
2022/04/08 02:34:09;;;;;;;6.38;1.77;;;;;;;4.39;100.00;91750.41;2121785;27;20029;-85
2022/04/08 02:35:11;;;;;;;8.60;1.10;;;;;;;4.35;100.00;91752.38;2121703;27;20019;-83
2022/04/08 02:36:12;;;;;;;5.05;1.45;;;;;;;4.33;100.00;91741.44;2120982;27;20023;-85
2022/04/08 02:37:13;;;;;;;8.35;1.48;;;;;;;4.20;100.00;91741.31;2113093;28;20384;-83
2022/04/08 02:38:14;;;;;;;5.90;1.20;;;;;;;4.23;100.00;91743.16;2113111;28;20020;-84
2022/04/08 02:39:25;;;;;;;3.38;1.15;;;;;;;4.04;100.00;91749.22;2113471;27;20024;-83
2022/04/08 02:40:26;;;;;;;8.32;1.15;;;;;;;4.14;100.00;91753.53;2126068;27;20431;-83
2022/04/08 02:41:27;;;;;;;3.88;1.27;;;;;;;4.39;100.00;91742.47;2121494;27;20114;-84
2022/04/08 02:42:31;;;;;;;4.63;1.23;;;;;;;4.37;100.00;91750.06;2116577;28;20019;-83
2022/04/08 02:43:32;;;;;;;4.10;1.30;;;;;;;4.24;100.00;91747.28;2110119;28;20520;-86
2022/04/08 02:44:33;;;;;;;5.20;1.10;;;;;;;4.34;100.00;91742.94;2118299;28;20026;-85
2022/04/08 02:45:34;;;;;;;2.83;0.90;;;;;;;4.53;100.00;91736.13;2107400;28;20024;-83
2022/04/08 02:46:35;;;;;;;6.60;1.27;;;;;;;4.45;100.00;91734.78;2104613;28;20028;-83
2022/04/08 02:47:41;;;;;;;6.38;1.10;;;;;;;4.44;100.00;91739.34;2118908;27;20114;-84
2022/04/08 02:48:42;;;;;;;7.88;1.55;;;;;;;4.33;100.00;91743.34;2106577;28;20055;-83
2022/04/08 02:49:44;;;;;;;4.45;1.10;;;;;;;4.27;100.00;91741.19;2119912;27;20027;-84
2022/04/08 02:50:46;;;;;;;4.43;1.15;;;;;;;4.35;100.00;91743.69;2116962;28;20123;-83
2022/04/08 02:51:47;;;;;;;7.40;1.60;;;;;;;4.25;100.00;91745.38;2113045;28;20019;-83
2022/04/08 02:52:48;;;;;;;4.50;1.33;;;;;;;4.18;100.00;91737.63;2105405;28;20071;-84
2022/04/08 02:53:49;;;;;;;7.78;1.40;;;;;;;4.00;100.00;91733.44;2104641;28;20515;-83
2022/04/08 02:54:50;;;;;;;3.50;0.80;;;;;;;4.12;100.00;91731.28;2112838;28;20499;-85
2022/04/08 02:55:51;;;;;;;6.10;1.05;;;;;;;4.05;100.00;91734.84;2104609;28;20615;-83
2022/04/08 02:56:53;;;;;;;3.78;1.10;;;;;;;4.21;100.00;91742.06;2104664;28;20494;-83
2022/04/08 02:57:55;;;;;;;2.88;1.05;;;;;;;4.17;100.00;91733.47;2104625;28;20651;-82
2022/04/08 02:59:00;;;;;;;6.57;1.38;;;;;;;4.20;100.00;91743.97;2112975;28;20552;-84
2022/04/08 03:00:06;;;;;;;5.95;1.13;;;;;;;4.01;100.00;91729.63;2103125;28;20114;-84
2022/04/08 03:01:07;;;;;;;4.43;1.25;;;;;;;4.04;100.00;91743.94;2105547;28;20055;-83
2022/04/08 03:02:08;;;;;;;5.90;0.95;;;;;;;3.90;100.00;91731.72;2121355;27;20491;-83
2022/04/08 03:03:10;;;;;;;2.90;1.20;;;;;;;3.89;100.00;91724.19;2119350;28;20028;-83
2022/04/08 03:04:12;;;;;;;4.70;1.10;;;;;;;4.01;100.00;91726.22;2098470;28;20100;-83
2022/04/08 03:05:15;;;;;;;10.55;1.20;;;;;;;4.10;100.00;91734.34;2108725;28;20028;-83
2022/04/08 03:06:16;;;;;;;7.05;1.67;;;;;;;4.06;100.00;91735.59;2093510;28;20036;-84
2022/04/08 03:07:17;;;;;;;4.13;1.20;;;;;;;4.10;100.00;91734.34;2099268;28;20501;-83
2022/04/08 03:08:19;;;;;;;5.72;1.15;;;;;;;3.95;100.00;91741.84;2104217;28;20024;-83
2022/04/08 03:09:21;;;;;;;4.10;1.60;;;;;;;3.97;100.00;91744.06;2092603;28;20041;-84
2022/04/08 03:10:23;;;;;;;3.50;1.05;;;;;;;4.04;100.00;91743.94;2091821;28;20025;-84
2022/04/08 03:11:24;;;;;;;2.72;1.15;;;;;;;3.94;100.00;91744.88;2112772;28;20570;-83
2022/04/08 03:12:33;;;;;;;6.85;1.17;;;;;;;3.90;100.00;91736.25;2099500;28;20048;-83
2022/04/08 03:13:41;;;;;;;5.93;1.15;;;;;;;3.98;100.00;91734.97;2092801;28;20017;-85
2022/04/08 03:14:52;;;;;;;5.75;1.20;;;;;;;3.85;100.00;91732.19;2096296;28;20016;-84
2022/04/08 03:16:00;;;;;;;2.45;1.00;;;;;;;3.76;100.00;91735.38;2098418;28;20028;-84
2022/04/08 03:17:08;;;;;;;4.13;1.10;;;;;;;3.87;100.00;91742.38;2104232;28;20126;-84
2022/04/08 03:18:16;;;;;;;5.18;0.80;;;;;;;3.78;100.00;91745.56;2096756;28;20444;-84
2022/04/08 03:19:20;;;;;;;2.90;1.10;;;;;;;3.70;100.00;91742.28;2089840;28;20214;-84
2022/04/08 03:20:22;;;;;;;3.25;0.82;;;;;;;3.84;100.00;91749.22;2096954;28;20016;-84
2022/04/08 03:21:23;;;;;;;5.90;1.15;;;;;;;3.70;100.00;91744.19;2095748;28;20020;-86
2022/04/08 03:22:24;;;;;;;3.33;0.90;;;;;;;3.56;100.00;91737.28;2087898;28;20558;-83
2022/04/08 03:23:25;;;;;;;3.95;1.02;;;;;;;3.55;100.00;91754.25;2085186;28;20160;-86
2022/04/08 03:24:27;;;;;;;2.75;1.00;;;;;;;3.49;100.00;91738.13;2090171;28;20557;-85
2022/04/08 03:25:28;;;;;;;4.68;1.73;;;;;;;3.42;100.00;91738.25;2095353;28;20020;-86
2022/04/08 03:26:30;;;;;;;4.82;1.30;;;;;;;3.36;100.00;91736.50;2102233;28;20024;-84
2022/04/08 03:27:31;;;;;;;6.55;1.70;;;;;;;3.41;100.00;91744.69;2095448;28;20511;-85
2022/04/08 03:28:32;;;;;;;4.97;1.05;;;;;;;3.35;100.00;91735.75;2090425;28;20025;-85
2022/04/08 03:29:33;;;;;;;4.53;1.00;;;;;;;3.51;100.00;91743.00;2090548;28;20600;-85
2022/04/08 03:30:35;;;;;;;5.03;1.48;;;;;;;3.38;100.00;91739.47;2099162;28;20023;-85
2022/04/08 03:31:36;;;;;;;1.85;1.17;;;;;;;3.53;100.00;91730.88;2095388;28;20028;-83
2022/04/08 03:32:37;;;;;;;3.45;1.40;;;;;;;3.50;100.00;91730.94;2090174;28;20021;-83
2022/04/08 03:33:39;;;;;;;6.97;1.10;;;;;;;3.51;100.00;91716.59;2095272;28;20473;-85
2022/04/08 03:34:40;;;;;;;5.05;1.25;;;;;;;3.52;100.00;91737.34;2104833;28;20028;-84
2022/04/08 03:35:41;;;;;;;5.47;1.10;;;;;;;3.51;100.00;91730.56;2092925;28;20032;-84
2022/04/08 03:36:43;;;;;;;3.53;1.00;;;;;;;3.61;100.00;91742.09;2096714;28;20032;-83
2022/04/08 03:37:44;;;;;;;7.03;1.05;;;;;;;3.54;100.00;91737.66;2098667;28;20025;-86
2022/04/08 03:38:45;;;;;;;4.20;1.15;;;;;;;3.56;100.00;91734.63;2098703;28;20029;-85
2022/04/08 03:39:46;;;;;;;5.50;1.30;;;;;;;3.59;100.00;91739.09;2090402;28;20051;-86
2022/04/08 03:40:48;;;;;;;3.65;1.15;;;;;;;3.49;100.00;91735.50;2107204;28;20028;-86
2022/04/08 03:41:49;;;;;;;1.85;0.93;;;;;;;3.62;100.00;91751.50;2107200;28;20028;-86
2022/04/08 03:42:50;;;;;;;6.07;1.10;;;;;;;3.74;100.00;91736.94;2107110;28;20023;-86
2022/04/08 03:43:51;;;;;;;4.40;0.95;;;;;;;3.56;100.00;91734.63;2107198;28;20044;-83
2022/04/08 03:44:54;;;;;;;4.72;1.10;;;;;;;3.40;100.00;91734.53;2098684;28;20067;-84
2022/04/08 03:45:55;;;;;;;2.38;1.10;;;;;;;3.44;100.00;91722.00;2098818;28;20025;-86
2022/04/08 03:46:56;;;;;;;4.95;0.95;;;;;;;3.61;100.00;91728.88;2093950;28;20035;-85
2022/04/08 03:47:58;;;;;;;4.03;0.82;;;;;;;3.71;100.00;91740.41;2099762;28;20028;-84
2022/04/08 03:48:59;;;;;;;2.90;1.00;;;;;;;3.47;100.00;91737.06;2105154;28;20051;-86
2022/04/08 03:50:00;;;;;;;4.95;1.10;;;;;;;3.57;100.00;91745.94;2085389;28;20087;-84
2022/04/08 03:51:01;;;;;;;4.47;1.33;;;;;;;3.49;100.00;91745.31;2090684;28;20112;-83
2022/04/08 03:52:10;;;;;;;2.75;1.10;;;;;;;3.56;100.00;91739.16;2106783;28;20034;-85
2022/04/08 03:53:12;;;;;;;4.65;1.00;;;;;;;3.59;100.00;91748.91;2107806;28;20504;-85
2022/04/08 03:54:13;;;;;;;4.05;0.90;;;;;;;3.54;100.00;91742.94;2104100;28;20030;-84
2022/04/08 03:55:14;;;;;;;3.35;0.80;;;;;;;3.48;100.00;91743.84;2084464;28;20017;-85
2022/04/08 03:56:15;;;;;;;2.03;0.90;;;;;;;3.33;100.00;91750.50;2098292;28;20074;-84
2022/04/08 03:57:17;;;;;;;3.45;1.15;;;;;;;3.46;100.00;91752.13;2106707;28;20468;-83
2022/04/08 03:58:19;;;;;;;2.33;0.93;;;;;;;3.42;100.00;91756.72;2098472;28;20473;-85
2022/04/08 03:59:21;;;;;;;2.42;0.73;;;;;;;3.44;100.00;91757.09;2091473;28;20035;-83
2022/04/08 04:00:22;;;;;;;2.97;0.80;;;;;;;3.51;100.00;91754.34;2091258;28;20024;-85
2022/04/08 04:01:24;;;;;;;2.50;0.73;;;;;;;3.57;100.00;91764.44;2082497;28;20021;-85
2022/04/08 04:02:25;;;;;;;1.13;0.80;;;;;;;3.45;100.00;91755.19;2090171;28;20051;-84
2022/04/08 04:03:26;;;;;;;3.00;0.90;;;;;;;3.64;100.00;91756.38;2090073;28;20028;-86
2022/04/08 04:04:28;;;;;;;4.07;1.00;;;;;;;3.67;100.00;91752.91;2090144;28;20017;-83
2022/04/08 04:05:30;;;;;;;1.40;0.60;;;;;;;3.59;100.00;91756.84;2107274;28;20036;-84
2022/04/08 04:06:31;;;;;;;1.88;0.70;;;;;;;3.37;100.00;91741.34;2103243;28;20024;-86
2022/04/08 04:07:33;;;;;;;1.25;0.70;;;;;;;3.32;100.00;91744.47;2098523;28;20020;-87
2022/04/08 04:08:35;;;;;;;2.83;0.82;;;;;;;3.28;100.00;91760.38;2104133;28;20165;-85
2022/04/08 04:09:36;;;;;;;2.35;0.90;;;;;;;3.36;100.00;91752.34;2101182;28;20013;-84
2022/04/08 04:10:37;;;;;;;1.73;0.68;;;;;;;3.45;100.00;91747.28;2104218;28;20023;-83
2022/04/08 04:11:38;;;;;;;1.77;0.82;;;;;;;3.37;100.00;91751.19;2083899;28;20025;-83
2022/04/08 04:12:39;;;;;;;5.03;1.02;;;;;;;3.40;100.00;91742.47;2087393;28;20036;-85
2022/04/08 04:13:41;;;;;;;2.38;0.93;;;;;;;3.34;100.00;91739.53;2098325;28;20443;-84
2022/04/08 04:14:41;;;;;;;2.42;0.85;;;;;;;3.22;100.00;91748.78;2090125;28;20116;-84
2022/04/08 04:15:42;;;;;;;2.17;0.93;;;;;;;3.26;100.00;91748.72;2092445;28;20118;-85
2022/04/08 04:16:43;;;;;;;1.50;0.57;;;;;;;3.35;100.00;91748.94;2096589;28;20024;-86
2022/04/08 04:17:44;;;;;;;2.78;0.80;;;;;;;3.33;100.00;91740.66;2104425;28;20024;-85
2022/04/08 04:18:45;;;;;;;1.45;0.73;;;;;;;3.36;100.00;91747.06;2106488;28;20066;-86
2022/04/08 04:19:46;;;;;;;1.55;1.00;;;;;;;3.32;100.00;91741.81;2090282;28;20029;-87
2022/04/08 04:20:47;;;;;;;1.50;0.90;;;;;;;3.53;100.00;91741.47;2097130;28;20029;-85
2022/04/08 04:21:49;;;;;;;3.75;0.82;;;;;;;3.39;100.00;91743.63;2097959;28;20472;-84
2022/04/08 04:22:50;;;;;;;2.03;0.77;;;;;;;3.41;100.00;91734.13;2106474;28;20154;-84
2022/04/08 04:23:51;;;;;;;0.60;0.60;;;;;;;3.51;100.00;91727.91;2089594;28;20029;-84
2022/04/08 04:24:53;;;;;;;1.73;1.08;;;;;;;3.38;100.00;91732.31;2081835;28;20022;-85
2022/04/08 04:25:54;;;;;;;1.45;1.00;;;;;;;3.40;100.00;91731.88;2098182;28;20039;-86
2022/04/08 04:26:55;;;;;;;2.10;0.90;;;;;;;3.40;100.00;91742.47;2098361;28;20020;-83
2022/04/08 04:27:56;;;;;;;3.05;1.00;;;;;;;3.36;100.00;91739.13;2098204;28;20536;-86
2022/04/08 04:28:58;;;;;;;1.77;0.73;;;;;;;3.48;100.00;91741.19;2106487;28;20122;-84
2022/04/08 04:29:58;;;;;;;2.55;0.70;;;;;;;3.51;100.00;91740.34;2101715;28;20024;-84
2022/04/08 04:31:03;;;;;;;2.50;0.85;;;;;;;3.46;100.00;91751.41;2094196;28;20035;-87
2022/04/08 04:32:05;;;;;;;2.75;0.80;;;;;;;3.33;100.00;91751.22;2105999;28;20016;-85
2022/04/08 04:33:13;;;;;;;3.55;1.00;;;;;;;3.39;100.00;91741.72;2106925;28;20518;-85
2022/04/08 04:34:14;;;;;;;1.92;0.70;;;;;;;3.40;100.00;91745.09;2107511;28;20034;-84
2022/04/08 04:35:15;;;;;;;2.00;0.90;;;;;;;3.39;100.00;91747.00;2097484;28;20020;-84
2022/04/08 04:36:17;;;;;;;5.53;1.25;;;;;;;3.39;100.00;91740.97;2097677;28;20020;-85
2022/04/08 04:37:19;;;;;;;2.53;1.33;;;;;;;3.44;100.00;91743.16;2093061;28;20029;-84
2022/04/08 04:38:20;;;;;;;2.20;1.77;;;;;;;3.57;100.00;91746.69;2094208;28;20064;-86
2022/04/08 04:39:20;;;;;;;5.15;2.08;;;;;;;3.43;100.00;91750.31;2098081;28;20024;-84
2022/04/08 04:40:21;;;;;;;1.50;0.95;;;;;;;3.64;100.00;91759.75;2097996;28;20033;-85
2022/04/08 04:41:23;;;;;;;2.28;1.08;;;;;;;3.58;100.00;91750.81;2093697;28;20027;-83
2022/04/08 04:42:25;;;;;;;3.65;1.10;;;;;;;3.51;100.00;91751.69;2086089;28;20084;-85
2022/04/08 04:43:27;;;;;;;2.60;0.90;;;;;;;3.60;100.00;91753.03;2094605;28;20048;-83
2022/04/08 04:44:28;;;;;;;2.22;1.30;;;;;;;3.58;100.00;91748.16;2098293;28;20400;-84
2022/04/08 04:45:29;;;;;;;2.42;0.80;;;;;;;3.81;100.00;91757.94;2098095;28;20028;-84
2022/04/08 04:46:31;;;;;;;3.22;0.88;;;;;;;3.73;100.00;91754.69;2089880;28;20029;-86
2022/04/08 04:47:32;;;;;;;2.95;1.00;;;;;;;3.65;100.00;91761.25;2106838;28;20025;-84
2022/04/08 04:48:33;;;;;;;3.70;0.90;;;;;;;3.44;100.00;91751.81;2104140;28;20028;-84
2022/04/08 04:49:33;;;;;;;2.47;0.82;;;;;;;3.64;100.00;91757.09;2095348;28;20104;-84
2022/04/08 04:50:34;;;;;;;2.72;1.10;;;;;;;3.56;100.00;91752.34;2093000;28;20031;-86
2022/04/08 04:51:35;;;;;;;3.08;0.90;;;;;;;3.55;100.00;91754.25;2087235;28;20049;-84
2022/04/08 04:52:36;;;;;;;4.22;1.10;;;;;;;3.61;100.00;91754.56;2089831;28;20033;-86